createdAt,value
2022-12-25T00:01:52.712Z,6.78
2022-12-25T00:04:21.267Z,7.43
2022-12-25T00:06:48.457Z,13.60
2022-12-25T00:09:15.784Z,7.95
2022-12-25T00:11:44.093Z,9.23
2022-12-25T00:14:11.225Z,6.50
2022-12-25T00:16:38.404Z,9.73
2022-12-25T00:19:05.602Z,11.35
2022-12-25T00:21:33.350Z,11.18
2022-12-25T00:24:01.510Z,13.00
2022-12-25T00:26:28.710Z,7.30
2022-12-25T00:28:56.927Z,33.03
2022-12-25T00:31:24.623Z,5.97
2022-12-25T00:33:52.327Z,5.63
2022-12-25T00:36:20.612Z,8.70
2022-12-25T00:38:47.974Z,10.77
2022-12-25T00:41:16.545Z,8.40
2022-12-25T00:43:43.961Z,8.93
2022-12-25T00:46:12.512Z,7.38
2022-12-25T00:48:40.155Z,11.15
2022-12-25T00:51:08.941Z,11.35
2022-12-25T00:53:36.344Z,7.22
2022-12-25T00:56:05.770Z,8.73
2022-12-25T00:58:33.812Z,9.20
2022-12-25T01:01:01.063Z,8.02
2022-12-25T01:03:28.316Z,6.10
2022-12-25T01:05:57.105Z,7.38
2022-12-25T01:08:24.345Z,9.43
2022-12-25T01:10:55.220Z,8.32
2022-12-25T01:13:22.389Z,7.55
2022-12-25T01:15:49.784Z,5.78
2022-12-25T01:18:17.143Z,7.15
2022-12-25T01:20:44.217Z,11.88
2022-12-25T01:23:11.465Z,7.63
2022-12-25T01:25:38.720Z,8.48
2022-12-25T01:28:07.113Z,10.80
2022-12-25T01:30:36.495Z,8.40
2022-12-25T01:33:03.711Z,8.45
2022-12-25T01:35:30.957Z,7.43
2022-12-25T01:37:58.091Z,8.80
2022-12-25T01:40:25.227Z,9.05
2022-12-25T01:42:52.365Z,9.65
2022-12-25T01:45:47.724Z,6.50
2022-12-25T01:48:17.739Z,7.95
2022-12-25T01:50:46.869Z,9.13
2022-12-25T01:53:14.114Z,6.05
2022-12-25T01:55:41.931Z,6.43
2022-12-25T01:58:09.150Z,7.60
2022-12-25T02:00:36.365Z,7.47
2022-12-25T02:03:04.238Z,6.50
2022-12-25T02:05:32.944Z,6.75
2022-12-25T02:08:01.743Z,9.07
2022-12-25T02:10:28.906Z,6.35
2022-12-25T02:12:56.373Z,5.28
2022-12-25T02:15:27.488Z,5.70
2022-12-25T02:18:09.697Z,6.05
2022-12-25T02:20:39.741Z,6.03
2022-12-25T02:23:15.834Z,6.20
2022-12-25T02:26:06.095Z,7.97
2022-12-25T02:28:37.460Z,6.60
2022-12-25T02:31:15.460Z,7.50
2022-12-25T02:34:05.056Z,6.90
2022-12-25T02:36:53.964Z,5.10
2022-12-25T02:39:46.901Z,5.53
2022-12-25T02:42:16.379Z,6.25
2022-12-25T02:45:03.715Z,5.43
2022-12-25T02:50:35.739Z,5.53
2022-12-25T02:53:23.341Z,4.97
2022-12-25T02:56:09.274Z,8.65
2022-12-25T02:58:56.255Z,6.07
2022-12-25T03:01:43.458Z,4.70
2022-12-25T03:04:31.730Z,6.13
2022-12-25T03:07:04.850Z,5.97
2022-12-25T03:09:54.042Z,6.03
2022-12-25T03:12:41.606Z,6.68
2022-12-25T03:15:28.316Z,4.32
2022-12-25T03:17:56.311Z,9.20
2022-12-25T03:20:42.406Z,5.35
2022-12-25T03:23:29.287Z,6.15
2022-12-25T03:26:15.385Z,5.65
2022-12-25T03:28:42.537Z,5.93
2022-12-25T03:31:18.887Z,6.32
2022-12-25T03:34:13.833Z,5.95
2022-12-25T03:37:28.992Z,6.57
2022-12-25T03:40:21.241Z,4.93
2022-12-25T03:43:12.796Z,6.75
2022-12-25T03:46:03.224Z,5.55
2022-12-25T03:48:51.861Z,5.35
2022-12-25T03:51:40.384Z,7.00
2022-12-25T03:54:27.648Z,5.88
2022-12-25T03:57:14.603Z,5.60
2022-12-25T04:00:00.198Z,4.93
2022-12-25T04:02:46.045Z,4.22
2022-12-25T04:05:32.011Z,4.80
2022-12-25T04:08:17.406Z,9.52
2022-12-25T04:11:03.046Z,4.47
2022-12-25T04:13:49.899Z,4.53
2022-12-25T04:16:35.764Z,4.50
2022-12-25T04:19:21.522Z,5.22
2022-12-25T04:22:07.519Z,3.45
2022-12-25T04:24:53.466Z,4.22
2022-12-25T04:27:39.428Z,5.80
2022-12-25T04:30:25.497Z,4.85
2022-12-25T04:33:15.981Z,4.03
2022-12-25T04:36:05.305Z,3.33
2022-12-25T04:38:32.675Z,5.07
2022-12-25T04:41:00.532Z,5.45
2022-12-25T04:43:27.827Z,5.63
2022-12-25T04:45:55.761Z,6.03
2022-12-25T04:48:22.991Z,3.75
2022-12-25T04:50:50.177Z,4.30
2022-12-25T04:53:17.797Z,4.97
2022-12-25T04:55:44.895Z,4.15
2022-12-25T04:58:12.425Z,5.25
2022-12-25T05:00:39.601Z,4.88
2022-12-25T05:03:06.943Z,4.45
2022-12-25T05:05:34.127Z,4.28
2022-12-25T05:08:01.272Z,3.50
2022-12-25T05:10:28.398Z,5.40
2022-12-25T05:12:55.521Z,5.13
2022-12-25T05:15:22.664Z,3.88
2022-12-25T05:17:51.337Z,4.00
2022-12-25T05:20:18.458Z,3.35
2022-12-25T05:22:45.588Z,4.38
2022-12-25T05:25:12.875Z,4.47
2022-12-25T05:27:41.374Z,3.58
2022-12-25T05:30:08.943Z,3.38
2022-12-25T05:32:36.089Z,3.90
2022-12-25T05:35:03.215Z,6.35
2022-12-25T05:37:30.403Z,4.53
2022-12-25T05:39:57.515Z,5.03
2022-12-25T05:42:24.741Z,3.28
2022-12-25T05:44:51.897Z,4.22
2022-12-25T05:47:19.011Z,3.25
2022-12-25T05:49:46.192Z,3.33
2022-12-25T05:52:13.427Z,4.60
2022-12-25T05:54:40.559Z,5.28
2022-12-25T05:57:07.645Z,3.80
2022-12-25T05:59:34.949Z,3.47
2022-12-25T06:02:02.188Z,3.90
2022-12-25T06:04:29.372Z,6.35
2022-12-25T06:06:56.451Z,3.00
2022-12-25T06:09:23.610Z,4.45
2022-12-25T06:11:50.803Z,3.95
2022-12-25T06:14:17.910Z,4.28
2022-12-25T06:16:45.130Z,3.88
2022-12-25T06:19:12.323Z,3.75
2022-12-25T06:21:39.427Z,4.72
2022-12-25T06:24:06.862Z,9.73
2022-12-25T06:26:34.111Z,3.53
2022-12-25T06:29:01.260Z,3.05
2022-12-25T06:31:28.524Z,3.28
2022-12-25T06:33:55.986Z,9.23
2022-12-25T06:36:24.471Z,3.92
2022-12-25T06:38:51.972Z,2.90
2022-12-25T06:41:20.489Z,3.22
2022-12-25T06:43:51.739Z,4.38
2022-12-25T06:46:19.350Z,3.53
2022-12-25T06:48:49.868Z,2.65
2022-12-25T06:51:17.761Z,3.50
2022-12-25T06:53:44.989Z,3.25
2022-12-25T06:56:15.650Z,5.85
2022-12-25T06:58:50.231Z,3.47
2022-12-25T07:01:23.347Z,2.50
2022-12-25T07:03:52.117Z,6.45
2022-12-25T07:06:19.306Z,3.38
2022-12-25T07:08:46.469Z,2.50
2022-12-25T07:11:13.857Z,2.80
2022-12-25T07:13:41.099Z,3.50
2022-12-25T07:16:08.433Z,3.40
2022-12-25T07:18:35.995Z,3.75
2022-12-25T07:21:07.229Z,3.42
2022-12-25T07:23:34.494Z,3.47
2022-12-25T07:26:03.950Z,6.22
2022-12-25T07:28:31.765Z,2.85
2022-12-25T07:31:05.661Z,9.48
2022-12-25T07:33:35.776Z,4.70
2022-12-25T07:36:03.146Z,10.40
2022-12-25T07:38:30.334Z,4.32
2022-12-25T07:40:57.808Z,3.58
2022-12-25T07:43:25.438Z,3.03
2022-12-25T07:45:56.772Z,3.70
2022-12-25T07:48:26.052Z,3.17
2022-12-25T07:51:12.022Z,5.40
2022-12-25T07:53:39.773Z,2.85
2022-12-25T07:56:08.225Z,3.83
2022-12-25T07:58:35.393Z,2.80
2022-12-25T08:01:29.731Z,2.90
2022-12-25T08:03:58.761Z,3.20
2022-12-25T08:08:58.444Z,4.07
2022-12-25T08:13:53.047Z,4.93
2022-12-25T08:16:20.348Z,4.88
2022-12-25T08:18:47.478Z,3.05
2022-12-25T08:21:15.436Z,3.83
2022-12-25T08:23:43.970Z,2.78
2022-12-25T08:26:16.112Z,2.17
2022-12-25T08:28:43.292Z,2.67
2022-12-25T08:31:12.133Z,5.05
2022-12-25T08:33:39.561Z,4.68
2022-12-25T08:36:07.914Z,5.20
2022-12-25T08:38:35.112Z,3.42
2022-12-25T08:41:02.304Z,3.58
2022-12-25T08:43:29.422Z,1.90
2022-12-25T08:45:56.719Z,3.63
2022-12-25T08:48:23.984Z,3.17
2022-12-25T08:50:52.302Z,2.58
2022-12-25T08:53:19.900Z,2.80
2022-12-25T08:55:47.067Z,2.95
2022-12-25T08:58:14.743Z,2.63
2022-12-25T09:00:42.071Z,2.58
2022-12-25T09:03:09.243Z,2.72
2022-12-25T09:05:37.041Z,4.20
2022-12-25T09:08:04.442Z,3.45
2022-12-25T09:10:31.583Z,4.40
2022-12-25T09:12:58.872Z,3.50
2022-12-25T09:15:26.042Z,2.50
2022-12-25T09:17:53.168Z,3.83
2022-12-25T09:20:20.329Z,1.55
2022-12-25T09:22:47.539Z,3.22
2022-12-25T09:25:14.876Z,6.10
2022-12-25T09:27:43.858Z,2.58
2022-12-25T09:32:40.284Z,3.53
2022-12-25T09:35:10.664Z,3.13
2022-12-25T09:37:37.759Z,2.63
2022-12-25T09:40:05.134Z,2.53
2022-12-25T09:42:34.472Z,1.98
2022-12-25T09:45:03.724Z,2.10
2022-12-25T09:47:32.431Z,2.20
2022-12-25T09:50:24.039Z,2.65
2022-12-25T09:52:57.827Z,2.42
2022-12-25T09:55:26.380Z,1.55
2022-12-25T09:57:55.625Z,2.10
2022-12-25T10:00:24.206Z,2.22
2022-12-25T10:03:00.567Z,2.33
2022-12-25T10:05:46.483Z,2.78
2022-12-25T10:08:13.551Z,2.92
2022-12-25T10:10:59.111Z,2.03
2022-12-25T10:13:46.110Z,1.73
2022-12-25T10:16:13.501Z,2.17
2022-12-25T10:18:49.536Z,1.38
2022-12-25T10:21:18.409Z,1.90
2022-12-25T10:26:20.323Z,1.85
2022-12-25T10:28:59.450Z,0.95
2022-12-25T10:31:29.244Z,1.15
2022-12-25T10:33:56.756Z,2.53
2022-12-25T10:36:25.332Z,1.85
2022-12-25T10:38:56.464Z,1.33
2022-12-25T10:41:41.980Z,1.38
2022-12-25T10:44:16.227Z,1.83
2022-12-25T10:46:48.633Z,1.58
2022-12-25T10:49:16.621Z,1.45
2022-12-25T10:51:43.727Z,2.10
2022-12-25T10:54:30.817Z,1.63
2022-12-25T10:57:05.445Z,1.90
2022-12-25T10:59:36.075Z,1.23
2022-12-25T11:02:15.228Z,2.97
2022-12-25T11:04:42.531Z,1.55
2022-12-25T11:07:16.032Z,2.00
2022-12-25T11:10:05.916Z,1.80
2022-12-25T11:12:37.713Z,1.35
2022-12-25T11:15:07.170Z,1.92
2022-12-25T11:17:36.255Z,1.20
2022-12-25T11:20:03.503Z,1.90
2022-12-25T11:22:30.631Z,1.25
2022-12-25T11:24:57.823Z,1.20
2022-12-25T11:27:27.494Z,1.35
2022-12-25T11:30:03.289Z,0.82
2022-12-25T11:32:32.222Z,1.10
2022-12-25T11:37:31.797Z,1.48
2022-12-25T11:39:59.162Z,2.10
2022-12-25T11:42:28.912Z,2.05
2022-12-25T11:44:56.143Z,1.20
2022-12-25T11:47:42.273Z,1.63
2022-12-25T11:50:28.171Z,1.75
2022-12-25T11:52:56.096Z,1.88
2022-12-25T11:55:39.022Z,2.00
2022-12-25T11:58:17.450Z,1.52
2022-12-25T12:00:47.087Z,3.20
2022-12-25T12:03:19.181Z,2.83
2022-12-25T12:06:00.607Z,2.70
2022-12-25T12:08:28.392Z,2.53
2022-12-25T12:11:16.589Z,2.85
2022-12-25T12:13:44.034Z,3.13
2022-12-25T12:16:11.356Z,2.47
2022-12-25T12:18:38.780Z,2.60
2022-12-25T12:21:05.915Z,2.58
2022-12-25T12:23:48.670Z,2.60
2022-12-25T12:26:20.335Z,2.38
2022-12-25T12:28:48.360Z,2.05
2022-12-25T12:31:16.036Z,2.55
2022-12-25T12:33:49.252Z,2.45
2022-12-25T12:36:16.819Z,2.88
2022-12-25T12:38:44.931Z,2.47
2022-12-25T12:41:14.200Z,1.88
2022-12-25T12:43:43.048Z,1.20
2022-12-25T12:46:20.664Z,2.33
2022-12-25T12:51:29.732Z,3.65
2022-12-25T12:54:05.694Z,2.05
2022-12-25T12:56:32.797Z,3.22
2022-12-25T12:58:59.974Z,3.13
2022-12-25T13:01:27.326Z,1.52
2022-12-25T13:04:00.728Z,1.92
2022-12-25T13:06:38.483Z,1.67
2022-12-25T13:09:20.587Z,1.65
2022-12-25T13:11:48.389Z,2.42
2022-12-25T13:14:19.905Z,2.88
2022-12-25T13:16:48.220Z,1.77
2022-12-25T13:19:17.888Z,2.53
2022-12-25T13:21:57.333Z,2.15
2022-12-25T13:24:31.735Z,2.10
2022-12-25T13:26:59.533Z,1.77
2022-12-25T13:29:34.245Z,2.28
2022-12-25T13:32:02.640Z,1.80
2022-12-25T13:34:34.970Z,1.30
2022-12-25T13:37:07.866Z,2.10
2022-12-25T13:39:35.560Z,1.77
2022-12-25T13:42:05.387Z,1.48
2022-12-25T13:44:49.682Z,1.45
2022-12-25T13:47:27.548Z,2.42
2022-12-25T13:49:55.980Z,2.40
2022-12-25T13:52:33.495Z,2.17
2022-12-25T13:55:02.217Z,1.40
2022-12-25T13:57:35.245Z,2.20
2022-12-25T14:00:02.849Z,1.88
2022-12-25T14:02:31.853Z,1.83
2022-12-25T14:04:59.209Z,1.13
2022-12-25T14:07:27.129Z,1.63
2022-12-25T14:09:59.253Z,2.08
2022-12-25T14:12:28.908Z,2.38
2022-12-25T14:14:56.339Z,1.02
2022-12-25T14:17:25.253Z,3.80
2022-12-25T14:22:21.593Z,1.40
2022-12-25T14:24:49.370Z,2.03
2022-12-25T14:27:21.340Z,1.17
2022-12-25T14:29:49.813Z,1.58
2022-12-25T14:32:18.624Z,2.00
2022-12-25T14:34:47.024Z,2.83
2022-12-25T14:37:18.719Z,1.50
2022-12-25T14:39:47.585Z,1.48
2022-12-25T14:42:22.690Z,2.28
2022-12-25T14:47:21.488Z,1.95
2022-12-25T14:49:48.988Z,2.05
2022-12-25T14:52:25.470Z,1.73
2022-12-25T14:55:01.185Z,2.05
2022-12-25T14:57:30.270Z,2.15
2022-12-25T15:00:00.968Z,1.73
2022-12-25T15:02:28.840Z,5.60
2022-12-25T15:04:56.313Z,2.40
2022-12-25T15:07:28.825Z,2.50
2022-12-25T15:10:28.653Z,2.15
2022-12-25T15:12:43.442Z,4.75
2022-12-25T15:15:10.721Z,2.42
2022-12-25T15:17:38.206Z,2.05
2022-12-25T15:20:06.619Z,2.65
2022-12-25T15:22:53.934Z,2.60
2022-12-25T15:25:21.956Z,1.95
2022-12-25T15:27:49.290Z,1.55
2022-12-25T15:30:16.475Z,3.72
2022-12-25T15:32:43.995Z,2.38
2022-12-25T15:35:15.614Z,3.58
2022-12-25T15:37:42.956Z,4.95
2022-12-25T15:40:12.642Z,3.92
2022-12-25T15:42:39.934Z,5.25
2022-12-25T15:45:10.029Z,4.43
2022-12-25T15:47:37.224Z,6.93
2022-12-25T15:50:04.501Z,5.60
2022-12-25T15:52:31.699Z,7.78
2022-12-25T15:54:58.827Z,7.25
2022-12-25T15:57:26.375Z,8.13
2022-12-25T15:59:53.482Z,7.85
2022-12-25T16:02:21.658Z,10.18
2022-12-25T16:04:50.976Z,13.10
2022-12-25T16:07:19.311Z,12.02
2022-12-25T16:09:46.871Z,11.85
2022-12-25T16:12:14.237Z,16.13
2022-12-25T16:14:41.380Z,13.90
2022-12-25T16:17:08.882Z,17.50
2022-12-25T16:19:36.073Z,18.60
2022-12-25T16:22:11.140Z,19.55
2022-12-25T16:24:38.289Z,21.15
2022-12-25T16:27:05.375Z,19.95
2022-12-25T16:29:32.484Z,20.90
2022-12-25T16:31:59.655Z,17.23
2022-12-25T16:34:26.779Z,17.45
2022-12-25T16:36:54.154Z,17.20
2022-12-25T16:39:23.931Z,13.18
2022-12-25T16:41:51.121Z,15.00
2022-12-25T16:44:18.287Z,16.02
2022-12-25T16:46:45.566Z,15.75
2022-12-25T16:49:12.841Z,11.70
2022-12-25T16:51:40.113Z,14.52
2022-12-25T16:54:07.358Z,12.73
2022-12-25T16:56:36.580Z,9.32
2022-12-25T16:59:03.793Z,14.10
2022-12-25T17:01:30.964Z,9.70
2022-12-25T17:04:01.550Z,7.93
2022-12-25T17:06:28.936Z,8.90
2022-12-25T17:08:58.009Z,8.98
2022-12-25T17:11:29.524Z,9.70
2022-12-25T17:14:02.155Z,8.07
2022-12-25T17:16:30.972Z,8.60
2022-12-25T17:19:01.341Z,8.43
2022-12-25T17:21:29.561Z,6.60
2022-12-25T17:24:02.373Z,7.93
2022-12-25T17:26:31.591Z,7.78
2022-12-25T17:28:58.974Z,5.63
2022-12-25T17:31:26.355Z,8.15
2022-12-25T17:33:53.582Z,7.40
2022-12-25T17:36:21.636Z,7.72
2022-12-25T17:38:48.839Z,6.43
2022-12-25T17:41:17.273Z,6.75
2022-12-25T17:43:45.816Z,8.75
2022-12-25T17:46:13.099Z,5.32
2022-12-25T17:48:40.358Z,6.05
2022-12-25T17:51:09.508Z,5.60
2022-12-25T17:53:36.954Z,9.52
2022-12-25T17:56:04.279Z,8.48
2022-12-25T17:58:31.424Z,8.43
2022-12-25T18:00:58.856Z,7.22
2022-12-25T18:03:26.075Z,10.40
2022-12-25T18:05:53.359Z,8.18
2022-12-25T18:08:20.477Z,7.03
2022-12-25T18:10:47.647Z,10.65
2022-12-25T18:13:14.723Z,9.32
2022-12-25T18:15:42.404Z,7.32
2022-12-25T18:18:10.086Z,11.70
2022-12-25T18:20:40.303Z,14.15
2022-12-25T18:23:08.038Z,7.80
2022-12-25T18:25:35.623Z,8.50
2022-12-25T18:28:03.066Z,8.48
2022-12-25T18:30:30.438Z,6.40
2022-12-25T18:32:57.612Z,7.25
2022-12-25T18:35:29.133Z,9.77
2022-12-25T18:37:56.498Z,7.60
2022-12-25T18:40:23.744Z,6.85
2022-12-25T18:42:59.401Z,8.50
2022-12-25T18:45:30.101Z,8.38
2022-12-25T18:48:03.345Z,7.70
2022-12-25T18:50:31.048Z,11.57
2022-12-25T18:52:58.207Z,7.70
2022-12-25T18:55:25.341Z,8.10
2022-12-25T18:57:52.471Z,9.07
2022-12-25T19:00:19.980Z,6.22
2022-12-25T19:02:48.374Z,5.43
2022-12-25T19:05:16.057Z,6.50
2022-12-25T19:07:43.628Z,4.85
2022-12-25T19:10:10.845Z,6.22
2022-12-25T19:12:38.044Z,5.15
2022-12-25T19:15:05.572Z,5.28
2022-12-25T19:17:34.389Z,5.93
2022-12-25T19:20:02.076Z,4.38
2022-12-25T19:22:29.441Z,7.25
2022-12-25T19:24:56.606Z,5.55
2022-12-25T19:27:23.901Z,7.45
2022-12-25T19:29:51.057Z,4.78
2022-12-25T19:32:18.369Z,5.05
2022-12-25T19:34:45.575Z,5.32
2022-12-25T19:37:12.901Z,6.47
2022-12-25T19:39:45.971Z,10.85
2022-12-25T19:42:14.328Z,8.40
2022-12-25T19:44:41.560Z,6.32
2022-12-25T19:47:09.633Z,6.85
2022-12-25T19:49:36.952Z,12.68
2022-12-25T19:52:04.464Z,9.55
2022-12-25T19:54:31.682Z,11.00
2022-12-25T19:56:58.937Z,11.77
2022-12-25T19:59:26.172Z,12.35
2022-12-25T20:01:53.596Z,13.02
2022-12-25T20:04:20.992Z,12.82
2022-12-25T20:06:48.565Z,15.85
2022-12-25T20:09:20.629Z,15.65
2022-12-25T20:11:48.471Z,13.63
2022-12-25T20:14:16.481Z,13.40
2022-12-25T20:16:44.497Z,14.90
2022-12-25T20:19:13.083Z,16.60
2022-12-25T20:21:40.662Z,14.52
2022-12-25T20:24:10.229Z,15.80
2022-12-25T20:26:37.919Z,17.38
2022-12-25T20:29:05.753Z,14.40
2022-12-25T20:31:34.091Z,17.85
2022-12-25T20:34:04.905Z,16.85
2022-12-25T20:36:36.799Z,16.13
2022-12-25T20:39:05.556Z,19.33
2022-12-25T20:41:32.650Z,14.07
2022-12-25T20:44:01.794Z,14.45
2022-12-25T20:46:29.248Z,14.95
2022-12-25T20:48:56.686Z,15.50
2022-12-25T20:51:24.987Z,15.02
2022-12-25T20:53:52.490Z,15.07
2022-12-25T20:56:20.936Z,15.40
2022-12-25T20:58:48.508Z,13.32
2022-12-25T21:01:17.313Z,14.73
2022-12-25T21:03:45.317Z,13.82
2022-12-25T21:06:13.960Z,13.52
2022-12-25T21:08:41.200Z,14.95
2022-12-25T21:11:09.128Z,14.00
2022-12-25T21:13:38.466Z,12.88
2022-12-25T21:16:06.553Z,13.95
2022-12-25T21:18:34.109Z,12.38
2022-12-25T21:21:05.546Z,11.63
2022-12-25T21:23:32.996Z,14.68
2022-12-25T21:26:00.167Z,13.30
2022-12-25T21:28:29.309Z,11.10
2022-12-25T21:31:01.561Z,12.93
2022-12-25T21:33:47.285Z,13.95
2022-12-25T21:36:14.551Z,12.07
2022-12-25T21:38:41.692Z,11.50
2022-12-25T21:41:11.208Z,13.98
2022-12-25T21:43:38.847Z,11.32
2022-12-25T21:46:11.483Z,11.15
2022-12-25T21:48:39.089Z,12.85
2022-12-25T21:51:30.191Z,13.90
2022-12-25T21:53:57.599Z,10.45
2022-12-25T21:56:25.578Z,13.05
2022-12-25T21:58:52.900Z,12.95
2022-12-25T22:01:20.154Z,10.50
2022-12-25T22:03:47.540Z,12.52
2022-12-25T22:06:33.659Z,12.95
2022-12-25T22:09:01.476Z,10.27
2022-12-25T22:11:47.750Z,9.20
2022-12-25T22:14:52.804Z,10.93
2022-12-25T22:17:47.527Z,10.32
2022-12-25T22:22:42.170Z,9.75
2022-12-25T22:25:10.841Z,9.80
2022-12-25T22:27:38.784Z,11.27
2022-12-25T22:30:07.442Z,9.43
2022-12-25T22:32:34.704Z,11.38
2022-12-25T22:35:01.945Z,9.65
2022-12-25T22:37:29.162Z,9.85
2022-12-25T22:39:56.455Z,9.98
2022-12-25T22:42:23.693Z,10.68
2022-12-25T22:44:51.127Z,9.57
2022-12-25T22:47:20.753Z,10.40
2022-12-25T22:49:47.861Z,11.10
2022-12-25T22:52:15.250Z,10.20
2022-12-25T22:54:42.425Z,6.93
2022-12-25T22:57:09.620Z,12.85
2022-12-25T22:59:37.086Z,9.35
2022-12-25T23:02:04.351Z,9.48
2022-12-25T23:04:31.684Z,9.43
2022-12-25T23:06:59.087Z,11.07
2022-12-25T23:09:27.966Z,8.45
2022-12-25T23:14:41.127Z,10.73
2022-12-25T23:17:29.698Z,10.50
2022-12-25T23:20:16.597Z,9.18
2022-12-25T23:23:02.500Z,9.77
2022-12-25T23:25:48.988Z,10.77
2022-12-25T23:28:36.165Z,7.70
2022-12-25T23:31:03.547Z,9.35
2022-12-25T23:33:30.822Z,10.73
2022-12-25T23:35:57.958Z,14.15
2022-12-25T23:38:25.278Z,9.07
2022-12-25T23:40:52.938Z,11.52
2022-12-25T23:43:20.393Z,10.98
2022-12-25T23:45:47.514Z,10.13
2022-12-25T23:48:14.668Z,10.02
2022-12-25T23:50:41.816Z,10.90
2022-12-25T23:53:08.961Z,9.05
2022-12-25T23:55:37.976Z,8.75
